Time;durP1;ratioP1;P1;durP2;ratioP2;P2;SDS_P1;SDS_P2;PMS_P1;PMS_P2;Temp;Humidity;BMP_temperature;BMP_pressure;BME280_temperature;BME280_humidity;BME280_pressure;Samples;Min_cycle;Max_cycle;Signal;HPM_P1;HPM_P2
2024/03/13 00:01:02;;;;;;;0.20;0.10;;;17.20;70.50;;;;;;4985355;28;20051;-78
2024/03/13 00:03:28;;;;;;;0.65;0.20;;;17.20;70.50;;;;;;4985127;28;20038;-78
2024/03/13 00:05:54;;;;;;;0.10;0.10;;;17.30;70.60;;;;;;4985645;28;20524;-78
2024/03/13 00:08:21;;;;;;;0.20;0.10;;;17.20;70.50;;;;;;5000884;28;20050;-78
2024/03/13 00:10:47;;;;;;;0.52;0.20;;;17.20;70.50;;;;;;4982433;28;20048;-78
2024/03/13 00:13:12;;;;;;;0.20;0.13;;;17.20;70.50;;;;;;4999882;28;20043;-79
2024/03/13 00:15:38;;;;;;;0.20;0.10;;;17.20;70.50;;;;;;4985167;28;20046;-80
2024/03/13 00:18:04;;;;;;;0.28;0.20;;;17.20;70.50;;;;;;4984647;28;20046;-80
2024/03/13 00:20:30;;;;;;;0.13;0.13;;;17.20;70.10;;;;;;4985535;28;20042;-79
2024/03/13 00:22:59;;;;;;;0.10;0.10;;;17.30;70.20;;;;;;4969290;28;20053;-79
2024/03/13 00:25:25;;;;;;;0.35;0.20;;;17.30;70.20;;;;;;4985608;28;20069;-79
2024/03/13 00:27:50;;;;;;;0.20;0.20;;;17.20;70.20;;;;;;4986320;28;20503;-79
2024/03/13 00:30:16;;;;;;;0.10;0.10;;;17.20;70.20;;;;;;4969645;28;20092;-79
2024/03/13 00:32:42;;;;;;;0.20;0.20;;;17.20;70.20;;;;;;4982650;28;20049;-79
2024/03/13 00:35:08;;;;;;;0.20;0.13;;;17.20;70.10;;;;;;4985006;28;20423;-79
2024/03/13 00:37:34;;;;;;;0.20;0.10;;;17.20;70.10;;;;;;4986049;28;20049;-79
2024/03/13 00:40:00;;;;;;;0.28;0.20;;;17.20;70.10;;;;;;4967395;28;20050;-79
2024/03/13 00:42:26;;;;;;;0.20;0.20;;;17.20;70.10;;;;;;4985809;28;20061;-79
2024/03/13 00:44:53;;;;;;;0.30;0.13;;;17.20;70.10;;;;;;4985706;28;20416;-79
2024/03/13 00:47:19;;;;;;;0.17;0.17;;;17.20;70.10;;;;;;4968044;28;20039;-79
2024/03/13 00:49:45;;;;;;;0.55;0.15;;;17.10;70.00;;;;;;4984011;28;20046;-79
2024/03/13 00:52:10;;;;;;;0.32;0.25;;;17.20;70.10;;;;;;4986477;28;20042;-79
2024/03/13 00:54:36;;;;;;;0.20;0.10;;;17.10;70.10;;;;;;4986018;28;20042;-79
2024/03/13 00:57:02;;;;;;;0.20;0.10;;;17.10;70.00;;;;;;4968044;28;20045;-79
2024/03/13 00:59:27;;;;;;;0.20;0.10;;;17.10;70.10;;;;;;4986958;28;20074;-79
2024/03/13 01:01:56;;;;;;;0.57;0.30;;;17.10;70.00;;;;;;4987183;28;20132;-78
2024/03/13 01:04:25;;;;;;;0.10;0.10;;;17.10;70.00;;;;;;4986387;28;20041;-79
2024/03/13 01:06:51;;;;;;;0.17;0.17;;;17.10;70.00;;;;;;4985463;28;20209;-79
2024/03/13 01:09:19;;;;;;;0.30;0.30;;;17.10;70.00;;;;;;4968903;28;20125;-79
2024/03/13 01:11:46;;;;;;;0.20;0.17;;;17.10;70.00;;;;;;4968156;28;20073;-79
2024/03/13 01:14:13;;;;;;;0.13;0.13;;;17.10;70.00;;;;;;4967383;28;20046;-79
2024/03/13 01:16:40;;;;;;;1.08;0.10;;;17.10;70.00;;;;;;4968115;28;20054;-79
2024/03/13 01:19:05;;;;;;;0.30;0.30;;;17.10;70.00;;;;;;4967163;28;20125;-79
2024/03/13 01:21:31;;;;;;;0.20;0.20;;;17.10;70.10;;;;;;4968185;28;20133;-79
2024/03/13 01:23:57;;;;;;;0.47;0.10;;;17.10;70.00;;;;;;4982022;28;20052;-79
2024/03/13 01:26:24;;;;;;;0.95;0.20;;;17.10;70.00;;;;;;4985057;28;20142;-79
2024/03/13 01:28:50;;;;;;;0.20;0.20;;;17.10;70.00;;;;;;4985488;28;20046;-79
2024/03/13 01:31:15;;;;;;;0.20;0.20;;;17.10;70.00;;;;;;4985199;28;20042;-79
2024/03/13 01:33:41;;;;;;;0.30;0.30;;;17.10;70.00;;;;;;4984740;28;20137;-79
2024/03/13 01:36:08;;;;;;;0.30;0.30;;;17.10;70.00;;;;;;4985416;28;20399;-79
2024/03/13 01:38:33;;;;;;;0.20;0.20;;;17.10;70.00;;;;;;4985912;28;20046;-79
2024/03/13 01:55:44;;;;;;;0.10;0.10;;;17.00;69.90;;;;;;4982934;28;20583;-79
2024/03/13 01:57:55;;;;;;;0.10;0.10;;;17.00;70.00;;;;;;4976499;28;20038;-78
2024/03/13 02:03:09;;;;;;;0.10;0.10;;;17.00;69.90;;;;;;4982305;28;20120;-79
2024/03/13 02:05:37;;;;;;;0.47;0.20;;;17.00;70.00;;;;;;4970006;28;20039;-79
2024/03/13 02:08:04;;;;;;;0.10;0.10;;;17.00;69.90;;;;;;4983362;28;20059;-79
2024/03/13 02:10:30;;;;;;;0.20;0.10;;;17.00;70.00;;;;;;4984532;28;20101;-79
2024/03/13 02:13:03;;;;;;;0.30;0.10;;;17.00;70.00;;;;;;4983457;28;20500;-79
2024/03/13 02:15:29;;;;;;;0.10;0.10;;;17.00;70.00;;;;;;4986049;28;20591;-79
2024/03/13 02:17:54;;;;;;;0.10;0.10;;;17.00;70.00;;;;;;4986274;28;20129;-79
2024/03/13 02:20:26;;;;;;;0.10;0.00;;;17.00;70.00;;;;;;4983292;28;20129;-79
2024/03/13 02:22:53;;;;;;;0.20;0.20;;;17.00;70.00;;;;;;4984287;28;20212;-79
2024/03/13 02:25:19;;;;;;;0.10;0.10;;;17.00;70.00;;;;;;4968230;28;20547;-80
2024/03/13 02:27:51;;;;;;;0.10;0.10;;;17.00;69.90;;;;;;4983749;28;20038;-80
2024/03/13 02:30:18;;;;;;;0.73;0.20;;;17.00;69.90;;;;;;4985214;28;20050;-80
2024/03/13 02:32:47;;;;;;;0.00;0.00;;;17.00;69.90;;;;;;4986705;28;20411;-79
2024/03/13 02:35:13;;;;;;;0.10;0.05;;;17.00;69.90;;;;;;4982409;28;20039;-79
2024/03/13 02:37:42;;;;;;;0.05;0.05;;;17.00;69.90;;;;;;4988844;28;20047;-79
2024/03/13 02:40:14;;;;;;;0.13;0.10;;;17.00;70.00;;;;;;4986551;28;20054;-80
2024/03/13 02:42:43;;;;;;;0.30;0.10;;;17.00;70.00;;;;;;4972911;28;20070;-80
2024/03/13 02:45:08;;;;;;;0.15;0.15;;;17.00;69.90;;;;;;4984057;28;20104;-79
2024/03/13 02:47:34;;;;;;;0.10;0.10;;;17.00;70.00;;;;;;4990753;28;20078;-80
2024/03/13 02:49:59;;;;;;;0.10;0.10;;;17.00;70.00;;;;;;4986675;28;20049;-79
2024/03/13 02:52:26;;;;;;;0.13;0.10;;;17.00;69.90;;;;;;4989015;28;20576;-79
2024/03/13 02:54:51;;;;;;;0.20;0.10;;;17.00;69.90;;;;;;4988949;28;20405;-79
2024/03/13 02:57:18;;;;;;;0.10;0.10;;;17.00;69.90;;;;;;4986955;28;20147;-79
2024/03/13 02:59:44;;;;;;;0.10;0.10;;;17.00;70.00;;;;;;4988262;28;20419;-79
2024/03/13 03:02:09;;;;;;;0.10;0.10;;;17.00;69.90;;;;;;4986871;28;20030;-79
2024/03/13 03:04:35;;;;;;;0.10;0.10;;;17.00;69.90;;;;;;4987456;28;20046;-79
2024/03/13 03:07:01;;;;;;;0.10;0.10;;;17.00;70.00;;;;;;4970249;28;20039;-79
2024/03/13 03:09:26;;;;;;;0.10;0.10;;;17.00;70.00;;;;;;4987913;28;20121;-79
2024/03/13 03:11:52;;;;;;;0.05;0.00;;;17.00;69.90;;;;;;4988457;28;20053;-79
2024/03/13 03:14:17;;;;;;;0.10;0.10;;;16.90;69.80;;;;;;4988464;28;20407;-79
2024/03/13 03:16:43;;;;;;;0.00;0.00;;;16.90;69.90;;;;;;4988183;28;20042;-79
2024/03/13 03:19:09;;;;;;;0.20;0.20;;;16.90;69.90;;;;;;4988311;28;20093;-78
2024/03/13 03:21:34;;;;;;;0.10;0.10;;;17.00;69.90;;;;;;4989644;28;20065;-79
2024/03/13 03:24:00;;;;;;;0.00;0.00;;;17.00;70.00;;;;;;4988316;28;20045;-79
2024/03/13 03:26:28;;;;;;;0.10;0.10;;;16.90;69.90;;;;;;4989529;28;20528;-79
2024/03/13 03:28:56;;;;;;;0.10;0.10;;;16.90;69.90;;;;;;4984168;28;20042;-79
2024/03/13 03:31:23;;;;;;;0.20;0.20;;;17.00;69.90;;;;;;4987547;28;20039;-79
2024/03/13 03:33:49;;;;;;;0.10;0.10;;;16.90;69.90;;;;;;4988846;28;20073;-79
2024/03/13 03:36:15;;;;;;;0.10;0.10;;;17.00;69.90;;;;;;4984614;28;20042;-79
2024/03/13 03:38:41;;;;;;;0.00;0.00;;;16.90;69.90;;;;;;4989577;28;20046;-79
2024/03/13 03:41:07;;;;;;;0.08;0.08;;;16.90;69.90;;;;;;4969715;28;20046;-79
2024/03/13 03:43:34;;;;;;;0.10;0.10;;;16.90;69.90;;;;;;4969782;28;20038;-79
2024/03/13 03:45:59;;;;;;;0.10;0.10;;;17.00;70.00;;;;;;4986944;28;20046;-79
2024/03/13 03:48:25;;;;;;;0.20;0.10;;;16.90;69.90;;;;;;4985061;28;20034;-79
2024/03/13 03:50:50;;;;;;;0.10;0.05;;;16.90;69.90;;;;;;4970912;28;20045;-79
2024/03/13 03:53:16;;;;;;;0.00;0.00;;;16.90;70.00;;;;;;4987221;28;20503;-79
2024/03/13 03:55:43;;;;;;;0.30;0.10;;;16.90;70.00;;;;;;4969230;28;20054;-79
2024/03/13 03:58:09;;;;;;;0.08;0.00;;;16.90;69.90;;;;;;4968246;28;20527;-79
2024/03/13 04:00:35;;;;;;;0.57;0.10;;;16.90;69.90;;;;;;4985659;28;20038;-79
2024/03/13 04:03:01;;;;;;;0.10;0.10;;;16.90;69.90;;;;;;4987800;28;20470;-79
2024/03/13 04:05:28;;;;;;;0.10;0.00;;;16.90;70.00;;;;;;4988953;28;20057;-79
2024/03/13 04:07:54;;;;;;;0.20;0.10;;;16.90;70.00;;;;;;4984697;28;20153;-79
2024/03/13 04:10:20;;;;;;;0.00;0.00;;;16.90;70.00;;;;;;4969653;28;20579;-79
2024/03/13 04:12:46;;;;;;;0.17;0.17;;;16.90;70.00;;;;;;4986893;28;20054;-79
2024/03/13 04:15:12;;;;;;;0.10;0.10;;;16.90;70.00;;;;;;5000281;28;20023;-79
2024/03/13 04:17:39;;;;;;;0.08;0.08;;;16.90;70.00;;;;;;4987692;28;20085;-79
2024/03/13 04:20:12;;;;;;;0.63;0.20;;;16.90;70.00;;;;;;4986444;28;20042;-79
2024/03/13 04:22:38;;;;;;;0.10;0.10;;;16.90;70.00;;;;;;4985057;28;20064;-78
2024/03/13 04:25:06;;;;;;;0.03;0.00;;;16.90;70.00;;;;;;5002002;28;20499;-79
2024/03/13 04:27:32;;;;;;;0.10;0.00;;;16.90;70.00;;;;;;4987990;28;20435;-79
2024/03/13 04:29:58;;;;;;;0.10;0.10;;;16.90;70.00;;;;;;4987397;28;20046;-79
2024/03/13 04:32:25;;;;;;;0.22;0.00;;;16.90;70.00;;;;;;4988402;28;20049;-79
2024/03/13 04:34:50;;;;;;;0.17;0.05;;;16.90;70.00;;;;;;4984479;28;20031;-79
2024/03/13 04:37:16;;;;;;;0.10;0.03;;;16.90;70.00;;;;;;4968339;28;20137;-80
2024/03/13 04:39:42;;;;;;;0.25;0.10;;;16.90;70.00;;;;;;4985608;28;20030;-79
2024/03/13 04:42:08;;;;;;;0.13;0.10;;;16.90;70.00;;;;;;4987012;28;20089;-79
2024/03/13 04:44:34;;;;;;;0.10;0.10;;;16.90;70.00;;;;;;4986887;28;20034;-79
2024/03/13 04:46:59;;;;;;;0.10;0.10;;;16.90;70.10;;;;;;4985000;28;20049;-79
2024/03/13 04:49:25;;;;;;;0.20;0.20;;;16.90;70.10;;;;;;4982532;28;20050;-79
2024/03/13 04:51:51;;;;;;;0.03;0.03;;;16.90;70.10;;;;;;5000931;28;20062;-79
2024/03/13 04:54:16;;;;;;;0.00;0.00;;;16.90;70.10;;;;;;4985971;28;20890;-79
2024/03/13 04:56:42;;;;;;;0.90;0.05;;;16.90;70.20;;;;;;4969965;28;20420;-79
2024/03/13 04:59:08;;;;;;;0.10;0.00;;;16.90;70.20;;;;;;4983333;28;20046;-78
2024/03/13 05:01:34;;;;;;;0.13;0.13;;;16.80;70.10;;;;;;4971213;28;20038;-79
2024/03/13 05:03:59;;;;;;;0.10;0.10;;;16.90;70.20;;;;;;4964062;28;20049;-79
2024/03/13 05:06:26;;;;;;;0.43;0.10;;;16.80;70.10;;;;;;4985851;28;20065;-79
2024/03/13 05:08:51;;;;;;;0.00;0.00;;;16.80;70.20;;;;;;4986509;28;20052;-79
2024/03/13 05:11:17;;;;;;;0.22;0.20;;;16.90;70.30;;;;;;4984879;28;20402;-79
2024/03/13 05:13:45;;;;;;;0.25;0.13;;;16.80;70.20;;;;;;4984541;28;20100;-79
2024/03/13 05:16:11;;;;;;;0.00;0.00;;;16.90;70.30;;;;;;4967300;28;20045;-78
2024/03/13 05:18:37;;;;;;;0.30;0.00;;;16.80;70.30;;;;;;4985845;28;20038;-79
2024/03/13 05:21:03;;;;;;;0.00;0.00;;;16.80;70.30;;;;;;4984940;28;20101;-78
2024/03/13 05:23:29;;;;;;;0.03;0.00;;;16.80;70.20;;;;;;4985704;28;20061;-79
2024/03/13 05:25:55;;;;;;;0.03;0.00;;;16.80;70.20;;;;;;4985461;28;20444;-79
2024/03/13 05:28:25;;;;;;;0.08;0.00;;;16.80;70.20;;;;;;4985474;28;20030;-79
2024/03/13 05:30:50;;;;;;;0.28;0.00;;;16.80;70.60;;;;;;4997543;28;20496;-79
2024/03/13 05:33:16;;;;;;;0.10;0.00;;;16.80;70.30;;;;;;4983167;28;20043;-79
2024/03/13 05:35:42;;;;;;;0.30;0.05;;;16.90;70.30;;;;;;4985505;28;20073;-79
2024/03/13 05:38:07;;;;;;;0.03;0.00;;;16.80;70.20;;;;;;5000951;28;20042;-79
2024/03/13 05:40:34;;;;;;;0.00;0.00;;;16.80;70.30;;;;;;4986585;28;20034;-79
2024/03/13 05:42:59;;;;;;;0.13;0.00;;;16.80;70.30;;;;;;4983494;28;20042;-79
2024/03/13 05:45:25;;;;;;;0.40;0.00;;;16.80;70.30;;;;;;4983824;28;20452;-79
2024/03/13 05:47:51;;;;;;;0.20;0.20;;;16.80;70.30;;;;;;4968293;28;20042;-79
2024/03/13 05:50:17;;;;;;;0.40;0.10;;;16.80;70.40;;;;;;4984316;28;20043;-79
2024/03/13 05:52:45;;;;;;;0.03;0.03;;;16.80;70.30;;;;;;4985731;28;20050;-79
2024/03/13 05:55:12;;;;;;;0.15;0.05;;;16.80;70.40;;;;;;4985627;28;20034;-79
2024/03/13 05:57:38;;;;;;;0.20;0.10;;;16.80;70.40;;;;;;4982332;28;20044;-79
2024/03/13 06:00:09;;;;;;;0.10;0.08;;;16.80;70.40;;;;;;4986911;28;20038;-79
2024/03/13 06:02:37;;;;;;;0.08;0.08;;;16.80;70.40;;;;;;4987205;28;20042;-79
2024/03/13 06:05:09;;;;;;;0.10;0.00;;;16.80;70.30;;;;;;4969191;28;20062;-79
2024/03/13 06:07:36;;;;;;;0.00;0.00;;;16.80;70.30;;;;;;4986014;28;20050;-79
2024/03/13 06:10:01;;;;;;;0.20;0.00;;;16.80;70.30;;;;;;4985763;28;20038;-79
2024/03/13 06:12:27;;;;;;;0.10;0.00;;;16.80;70.30;;;;;;4989731;28;20455;-79
2024/03/13 06:14:53;;;;;;;0.38;0.10;;;16.80;70.30;;;;;;4990373;28;20385;-79
2024/03/13 06:17:18;;;;;;;0.10;0.10;;;16.80;70.30;;;;;;4989119;28;20137;-79
2024/03/13 06:19:44;;;;;;;0.20;0.20;;;16.80;70.30;;;;;;4989659;28;20077;-79
2024/03/13 06:22:10;;;;;;;0.10;0.00;;;16.80;70.30;;;;;;4987947;28;20034;-79
2024/03/13 06:24:36;;;;;;;0.55;0.30;;;16.80;70.30;;;;;;4987950;28;20467;-79
2024/03/13 06:27:05;;;;;;;0.35;0.05;;;16.80;70.30;;;;;;4986720;28;20121;-80
2024/03/13 06:32:15;;;;;;;0.38;0.10;;;16.80;70.30;;;;;;4988853;28;20045;-80
2024/03/13 06:34:41;;;;;;;0.28;0.03;;;16.80;70.30;;;;;;4987739;28;20042;-81
2024/03/13 06:37:07;;;;;;;0.10;0.00;;;16.80;70.30;;;;;;4989922;28;20046;-80
2024/03/13 06:39:33;;;;;;;0.70;0.10;;;16.80;70.40;;;;;;4988971;28;20132;-80
2024/03/13 06:41:58;;;;;;;0.43;0.10;;;16.80;70.50;;;;;;4640350;28;10000646;-82
2024/03/13 06:44:24;;;;;;;0.38;0.20;;;16.80;70.40;;;;;;4984434;28;20039;-80
2024/03/13 06:46:53;;;;;;;0.13;0.08;;;16.80;70.30;;;;;;4986202;28;20569;-80
2024/03/13 06:49:19;;;;;;;0.13;0.13;;;16.90;70.30;;;;;;4999805;28;20045;-80
2024/03/13 06:51:44;;;;;;;0.28;0.17;;;16.90;70.70;;;;;;4984058;28;20046;-81
2024/03/13 06:54:10;;;;;;;0.68;0.20;;;16.90;70.60;;;;;;4983729;28;20042;-79
2024/03/13 06:56:35;;;;;;;0.15;0.15;;;16.90;71.40;;;;;;4986167;28;20054;-79
2024/03/13 06:59:01;;;;;;;0.73;0.00;;;16.90;70.80;;;;;;4999346;28;20544;-79
2024/03/13 07:01:29;;;;;;;0.80;0.15;;;16.90;70.70;;;;;;4982498;28;20062;-79
2024/03/13 07:03:55;;;;;;;0.45;0.30;;;16.90;70.70;;;;;;4967806;28;20488;-79
2024/03/13 07:06:20;;;;;;;0.52;0.20;;;16.90;70.60;;;;;;4965358;28;20057;-78
2024/03/13 07:08:46;;;;;;;0.10;0.10;;;16.90;70.70;;;;;;4984786;28;20074;-79
2024/03/13 07:11:13;;;;;;;0.20;0.00;;;16.90;70.70;;;;;;4982456;28;20058;-79
2024/03/13 07:13:38;;;;;;;1.58;0.20;;;16.90;70.70;;;;;;4951944;28;20046;-79
2024/03/13 07:16:05;;;;;;;0.10;0.10;;;16.90;70.80;;;;;;4981088;28;20050;-79
2024/03/13 07:18:31;;;;;;;0.22;0.10;;;16.90;70.80;;;;;;4981876;28;20109;-79
2024/03/13 07:20:57;;;;;;;0.10;0.10;;;16.90;70.70;;;;;;4995999;28;20050;-79
2024/03/13 07:23:23;;;;;;;0.00;0.00;;;16.90;70.80;;;;;;4981015;28;20274;-79
2024/03/13 07:25:55;;;;;;;0.00;0.00;;;16.90;70.70;;;;;;4996530;28;20046;-79
2024/03/13 07:28:21;;;;;;;0.00;0.00;;;16.90;70.70;;;;;;4998241;28;20519;-79
2024/03/13 07:30:49;;;;;;;0.20;0.00;;;16.90;70.70;;;;;;4985933;28;20121;-79
2024/03/13 07:33:15;;;;;;;0.10;0.00;;;16.90;70.70;;;;;;4985201;28;20527;-78
2024/03/13 07:35:44;;;;;;;0.10;0.10;;;17.00;70.70;;;;;;4986918;28;20583;-79
2024/03/13 07:38:09;;;;;;;0.03;0.03;;;17.00;70.60;;;;;;4982732;28;20138;-79
2024/03/13 07:40:39;;;;;;;1.30;0.10;;;17.00;70.70;;;;;;4982787;28;20423;-79
2024/03/13 07:43:08;;;;;;;0.47;0.10;;;17.00;70.80;;;;;;4983619;28;20077;-79
2024/03/13 07:45:43;;;;;;;0.30;0.10;;;17.00;70.90;;;;;;4998932;28;20054;-79
2024/03/13 07:48:09;;;;;;;0.30;0.20;;;17.00;70.70;;;;;;4981688;28;20049;-79
2024/03/13 07:50:38;;;;;;;1.35;0.10;;;17.00;70.70;;;;;;4959539;28;20097;-79
2024/03/13 07:53:05;;;;;;;0.30;0.10;;;17.10;70.80;;;;;;4976498;28;20042;-79
2024/03/13 07:55:33;;;;;;;0.30;0.10;;;17.10;71.10;;;;;;4963210;28;20062;-78
2024/03/13 07:58:00;;;;;;;0.10;0.10;;;17.10;71.00;;;;;;4982100;28;20301;-78
2024/03/13 08:00:27;;;;;;;0.10;0.00;;;17.10;71.10;;;;;;4986627;28;20046;-79
2024/03/13 08:02:54;;;;;;;0.60;0.10;;;17.00;70.90;;;;;;4985685;28;20043;-79
2024/03/13 08:05:20;;;;;;;0.32;0.10;;;17.00;70.90;;;;;;4986500;28;20073;-78
2024/03/13 08:07:46;;;;;;;0.20;0.10;;;17.00;70.80;;;;;;4969489;28;21035;-79
2024/03/13 08:10:15;;;;;;;1.90;0.20;;;17.00;70.70;;;;;;4987070;28;20077;-78
2024/03/13 08:12:41;;;;;;;0.10;0.00;;;17.00;70.60;;;;;;4988556;28;20050;-78
2024/03/13 08:15:08;;;;;;;0.10;0.00;;;17.00;70.70;;;;;;4986917;28;20057;-79
2024/03/13 08:17:34;;;;;;;0.10;0.10;;;17.00;70.60;;;;;;4984071;28;20045;-79
2024/03/13 08:20:00;;;;;;;0.50;0.10;;;17.00;70.70;;;;;;4987401;28;20504;-78
2024/03/13 08:22:26;;;;;;;0.20;0.20;;;17.00;70.50;;;;;;4987840;28;20053;-79
2024/03/13 08:24:52;;;;;;;0.00;0.00;;;17.10;70.60;;;;;;4991876;28;20462;-79
2024/03/13 08:27:18;;;;;;;0.50;0.20;;;17.00;70.50;;;;;;4986101;28;20038;-78
2024/03/13 08:29:44;;;;;;;0.00;0.00;;;17.10;70.60;;;;;;4989143;28;20054;-79
2024/03/13 08:32:10;;;;;;;0.32;0.10;;;17.10;70.60;;;;;;4986664;28;20049;-78
2024/03/13 08:34:36;;;;;;;0.60;0.20;;;17.10;70.50;;;;;;4969168;28;20104;-79
2024/03/13 08:37:03;;;;;;;0.10;0.10;;;17.10;70.40;;;;;;4987799;28;20053;-79
2024/03/13 08:39:29;;;;;;;0.25;0.08;;;17.10;70.40;;;;;;4987145;28;20093;-79
2024/03/13 08:41:55;;;;;;;1.48;0.10;;;17.10;70.30;;;;;;4988597;28;20121;-79
2024/03/13 08:44:20;;;;;;;0.28;0.10;;;17.00;70.30;;;;;;4986765;28;20503;-79
2024/03/13 08:46:48;;;;;;;0.20;0.00;;;17.10;70.40;;;;;;4987144;28;20046;-78
2024/03/13 08:49:14;;;;;;;0.30;0.10;;;17.10;70.30;;;;;;4985891;28;20108;-79
2024/03/13 08:51:40;;;;;;;0.10;0.10;;;17.10;71.10;;;;;;4986982;28;20053;-79
2024/03/13 08:54:06;;;;;;;0.10;0.00;;;17.10;70.20;;;;;;4986070;28;20038;-79
2024/03/13 08:56:42;;;;;;;0.85;0.20;;;17.10;70.10;;;;;;4988467;28;20050;-79
2024/03/13 08:59:07;;;;;;;0.20;0.10;;;17.20;70.10;;;;;;4987217;28;20508;-79
2024/03/13 09:01:41;;;;;;;0.03;0.03;;;17.20;70.00;;;;;;4985838;28;20053;-79
2024/03/13 09:04:08;;;;;;;0.10;0.10;;;17.20;70.70;;;;;;4995054;28;20045;-79
2024/03/13 09:06:36;;;;;;;0.05;0.05;;;17.20;69.90;;;;;;4986772;28;20034;-79
2024/03/13 09:09:03;;;;;;;0.10;0.00;;;17.30;69.80;;;;;;4988390;28;20042;-79
2024/03/13 09:11:29;;;;;;;0.10;0.05;;;17.20;69.70;;;;;;4988194;28;20061;-79
2024/03/13 09:14:01;;;;;;;0.47;0.10;;;17.30;69.60;;;;;;4983411;28;20047;-79
2024/03/13 09:16:28;;;;;;;0.10;0.10;;;17.30;69.40;;;;;;4984619;28;20042;-78
2024/03/13 09:18:53;;;;;;;0.00;0.00;;;17.40;69.50;;;;;;4984784;28;20046;-79
2024/03/13 09:21:19;;;;;;;0.20;0.10;;;17.40;69.20;;;;;;4986891;28;20538;-79
2024/03/13 09:23:44;;;;;;;0.35;0.10;;;17.40;69.00;;;;;;4988293;28;20100;-79
2024/03/13 09:26:10;;;;;;;0.20;0.10;;;17.50;68.90;;;;;;4980275;28;20046;-79
2024/03/13 09:28:36;;;;;;;0.10;0.10;;;17.60;68.50;;;;;;4985031;28;20046;-79
2024/03/13 09:31:02;;;;;;;0.08;0.05;;;17.70;68.20;;;;;;4986253;28;20526;-79
2024/03/13 09:33:28;;;;;;;0.10;0.00;;;17.70;67.90;;;;;;4985680;28;20050;-79
2024/03/13 09:35:56;;;;;;;0.10;0.03;;;17.80;67.80;;;;;;4988155;28;20070;-79
2024/03/13 09:38:22;;;;;;;0.52;0.00;;;17.80;67.60;;;;;;4987849;28;20034;-79
2024/03/13 09:40:48;;;;;;;0.98;0.30;;;17.80;67.60;;;;;;4968784;28;20034;-78
2024/03/13 09:43:14;;;;;;;0.10;0.10;;;17.80;67.50;;;;;;4986104;28;20126;-79
2024/03/13 09:45:40;;;;;;;0.10;0.00;;;17.90;67.50;;;;;;4986377;28;20137;-78
2024/03/13 09:48:06;;;;;;;0.40;0.00;;;18.00;67.40;;;;;;4973848;28;20574;-79
2024/03/13 09:50:32;;;;;;;0.30;0.10;;;17.90;67.40;;;;;;5005869;28;20034;-79
2024/03/13 09:52:57;;;;;;;0.10;0.08;;;17.90;67.40;;;;;;4972787;28;20061;-79
2024/03/13 09:55:23;;;;;;;0.10;0.10;;;18.00;67.40;;;;;;4990086;28;20031;-79
2024/03/13 09:57:49;;;;;;;0.10;0.10;;;17.90;67.30;;;;;;4972409;28;20035;-79
2024/03/13 10:00:18;;;;;;;0.17;0.10;;;18.00;67.40;;;;;;5003828;28;20412;-79
2024/03/13 10:02:44;;;;;;;0.20;0.20;;;17.90;67.30;;;;;;4989680;28;20058;-78
2024/03/13 10:05:11;;;;;;;0.57;0.20;;;17.90;67.40;;;;;;4950353;28;20416;-79
2024/03/13 10:07:37;;;;;;;0.10;0.10;;;18.00;67.40;;;;;;5004807;28;20038;-78
2024/03/13 10:10:08;;;;;;;0.00;0.00;;;18.00;67.50;;;;;;4989664;28;20053;-79
2024/03/13 10:12:34;;;;;;;2.35;0.10;;;18.00;67.40;;;;;;4984355;28;20941;-79
2024/03/13 10:15:00;;;;;;;0.08;0.00;;;18.00;67.40;;;;;;4992531;28;20042;-79
2024/03/13 10:17:26;;;;;;;0.40;0.10;;;18.00;67.30;;;;;;4988986;28;20460;-79
2024/03/13 10:19:53;;;;;;;0.68;0.10;;;18.10;67.30;;;;;;4972442;28;20053;-79
2024/03/13 10:22:19;;;;;;;0.10;0.00;;;18.10;67.30;;;;;;4988313;28;20046;-78
2024/03/13 10:24:46;;;;;;;0.52;0.17;;;18.10;67.20;;;;;;4989490;28;20125;-78
2024/03/13 10:27:14;;;;;;;0.28;0.00;;;18.10;67.10;;;;;;4972691;28;20495;-78
2024/03/13 10:29:41;;;;;;;0.00;0.00;;;18.10;67.00;;;;;;4989315;28;20500;-78
2024/03/13 10:32:06;;;;;;;0.10;0.00;;;18.10;67.00;;;;;;4972981;28;20038;-79
2024/03/13 10:34:32;;;;;;;0.17;0.00;;;18.20;67.00;;;;;;4954969;28;20073;-79
2024/03/13 10:36:58;;;;;;;0.13;0.10;;;18.20;66.90;;;;;;4975004;28;20096;-79
2024/03/13 10:39:33;;;;;;;0.25;0.13;;;18.20;67.00;;;;;;4989198;28;20058;-79
2024/03/13 10:41:59;;;;;;;0.20;0.17;;;18.20;67.00;;;;;;5003007;28;20065;-79
2024/03/13 10:44:26;;;;;;;0.10;0.10;;;18.20;66.90;;;;;;4990834;28;20039;-79
2024/03/13 10:46:51;;;;;;;0.08;0.08;;;18.30;66.90;;;;;;4989588;28;20508;-79
2024/03/13 10:49:17;;;;;;;0.15;0.08;;;18.30;66.90;;;;;;4989134;28;20030;-79
2024/03/13 10:51:43;;;;;;;0.00;0.00;;;18.30;67.00;;;;;;4986341;28;20126;-79
2024/03/13 10:54:10;;;;;;;0.20;0.10;;;18.20;66.90;;;;;;4990046;28;20077;-79
2024/03/13 10:56:36;;;;;;;0.10;0.10;;;18.30;66.90;;;;;;4985369;28;20050;-79
2024/03/13 10:59:02;;;;;;;0.10;0.10;;;18.30;66.90;;;;;;4971647;28;20068;-79
2024/03/13 11:01:30;;;;;;;0.40;0.10;;;18.30;66.90;;;;;;4984585;28;20038;-79
2024/03/13 11:04:01;;;;;;;0.20;0.10;;;18.30;67.00;;;;;;5004428;28;20515;-79
2024/03/13 11:06:32;;;;;;;0.00;0.00;;;18.30;66.90;;;;;;4988617;28;20038;-79
2024/03/13 11:09:00;;;;;;;0.10;0.10;;;18.30;66.90;;;;;;4988352;28;20046;-78
2024/03/13 11:11:25;;;;;;;0.05;0.00;;;18.30;67.00;;;;;;4987778;28;20050;-79
2024/03/13 11:13:54;;;;;;;0.13;0.10;;;18.30;66.80;;;;;;4971812;28;20046;-78
2024/03/13 11:16:21;;;;;;;0.10;0.10;;;18.30;67.60;;;;;;4971292;28;20126;-78
2024/03/13 11:18:46;;;;;;;0.10;0.10;;;18.30;66.70;;;;;;4988858;28;20831;-79
2024/03/13 11:21:17;;;;;;;0.32;0.13;;;18.30;66.80;;;;;;5002919;28;20469;-79
2024/03/13 11:23:43;;;;;;;0.10;0.10;;;18.30;66.80;;;;;;4997439;28;20050;-79
2024/03/13 11:26:09;;;;;;;1.17;0.10;;;18.40;66.70;;;;;;4970388;28;20042;-79
2024/03/13 11:28:35;;;;;;;0.10;0.10;;;18.40;66.80;;;;;;4986692;28;20046;-79
2024/03/13 11:31:00;;;;;;;0.10;0.08;;;18.30;66.70;;;;;;5004357;28;20050;-78
2024/03/13 11:33:26;;;;;;;0.10;0.10;;;18.40;66.90;;;;;;4987018;28;20045;-78
2024/03/13 11:35:55;;;;;;;0.13;0.10;;;18.40;66.90;;;;;;4988503;28;20100;-79
2024/03/13 11:38:21;;;;;;;0.30;0.20;;;18.30;66.70;;;;;;5001859;28;20039;-78
2024/03/13 11:40:47;;;;;;;0.10;0.10;;;18.30;66.80;;;;;;4972799;28;20046;-78
2024/03/13 11:43:22;;;;;;;0.22;0.10;;;18.30;66.90;;;;;;4991280;28;20042;-79
2024/03/13 11:45:48;;;;;;;0.00;0.00;;;18.30;66.90;;;;;;4984063;28;20065;-79
2024/03/13 11:48:15;;;;;;;0.15;0.10;;;18.30;67.00;;;;;;4986865;28;20050;-79
2024/03/13 11:51:06;;;;;;;0.25;0.08;;;18.30;66.90;;;;;;4987418;28;20046;-79
2024/03/13 11:53:35;;;;;;;0.10;0.10;;;18.30;66.90;;;;;;4986316;28;20100;-79
2024/03/13 11:56:09;;;;;;;0.10;0.00;;;18.30;67.00;;;;;;4986916;28;20038;-79
2024/03/13 11:58:36;;;;;;;0.17;0.08;;;18.30;67.00;;;;;;4987545;28;20468;-79
2024/03/13 12:01:01;;;;;;;0.93;0.10;;;18.40;67.10;;;;;;4985812;28;20110;-79
2024/03/13 12:03:40;;;;;;;0.00;0.00;;;18.30;67.10;;;;;;4988094;28;20129;-79
2024/03/13 12:06:23;;;;;;;0.17;0.17;;;18.30;67.00;;;;;;4987916;28;20129;-79
2024/03/13 12:08:49;;;;;;;0.10;0.10;;;18.30;67.00;;;;;;4987694;28;20049;-79
2024/03/13 12:11:17;;;;;;;0.08;0.08;;;18.40;67.00;;;;;;4988682;28;20628;-79
2024/03/13 12:13:42;;;;;;;0.20;0.00;;;18.40;66.90;;;;;;4987575;28;20038;-79
2024/03/13 12:16:09;;;;;;;0.00;0.00;;;18.30;67.00;;;;;;4970109;28;20103;-79
2024/03/13 12:18:34;;;;;;;0.10;0.10;;;18.30;67.10;;;;;;4986784;28;20057;-79
2024/03/13 12:21:01;;;;;;;0.00;0.00;;;18.30;67.00;;;;;;4987406;28;20511;-79
2024/03/13 12:23:27;;;;;;;0.10;0.00;;;18.30;67.00;;;;;;4971268;28;20038;-79
2024/03/13 12:25:52;;;;;;;0.10;0.10;;;18.30;66.90;;;;;;4985777;28;20045;-79
2024/03/13 12:28:20;;;;;;;0.00;0.00;;;18.40;67.00;;;;;;4986317;28;20562;-79
2024/03/13 12:30:46;;;;;;;0.45;0.20;;;18.30;66.90;;;;;;4987402;28;20069;-78
2024/03/13 12:33:11;;;;;;;0.10;0.10;;;18.40;67.00;;;;;;5002130;28;20154;-79
2024/03/13 12:35:37;;;;;;;0.30;0.10;;;18.40;66.90;;;;;;4988403;28;20046;-79
2024/03/13 12:38:03;;;;;;;0.10;0.10;;;18.30;66.90;;;;;;4985477;28;20459;-78
2024/03/13 12:40:30;;;;;;;0.00;0.00;;;18.30;66.90;;;;;;4985220;28;20173;-79
2024/03/13 12:42:56;;;;;;;0.00;0.00;;;18.30;66.80;;;;;;4986672;28;20101;-79
2024/03/13 12:45:21;;;;;;;0.03;0.00;;;18.40;66.90;;;;;;4985707;28;20111;-79
2024/03/13 12:47:47;;;;;;;0.00;0.00;;;18.40;66.80;;;;;;4988145;28;20039;-79
2024/03/13 12:50:15;;;;;;;0.10;0.10;;;18.40;66.90;;;;;;4968084;28;20043;-79
2024/03/13 12:52:41;;;;;;;0.20;0.10;;;18.30;66.80;;;;;;4984739;28;20096;-78
2024/03/13 12:55:12;;;;;;;0.10;0.10;;;18.40;66.90;;;;;;4986998;28;20045;-79
2024/03/13 12:57:38;;;;;;;0.13;0.10;;;18.40;66.90;;;;;;4985874;28;20030;-78
2024/03/13 13:00:18;;;;;;;0.00;0.00;;;18.40;66.90;;;;;;4987945;28;20062;-78
2024/03/13 13:02:45;;;;;;;0.10;0.10;;;18.30;67.00;;;;;;4987348;28;20787;-79